createdAt,value
2022-11-19T00:01:29.758Z,57.57
2022-11-19T00:03:31.245Z,57.54
2022-11-19T00:05:32.717Z,57.14
2022-11-19T00:07:34.052Z,57.20
2022-11-19T00:09:35.397Z,57.58
2022-11-19T00:11:57.648Z,57.29
2022-11-19T00:13:59.233Z,57.10
2022-11-19T00:16:00.721Z,57.48
2022-11-19T00:18:02.145Z,57.78
2022-11-19T00:20:03.743Z,57.84
2022-11-19T00:22:05.357Z,57.94
2022-11-19T00:24:06.661Z,57.38
2022-11-19T00:26:08.160Z,57.96
2022-11-19T00:28:09.570Z,57.46
2022-11-19T00:30:32.558Z,57.77
2022-11-19T00:32:32.155Z,57.96
2022-11-19T00:34:33.633Z,58.10
2022-11-19T00:36:35.179Z,58.01
2022-11-19T00:38:36.636Z,58.25
2022-11-19T00:40:37.908Z,58.19
2022-11-19T00:42:40.089Z,58.52
2022-11-19T00:44:41.865Z,58.24
2022-11-19T00:46:43.350Z,58.58
2022-11-19T00:48:44.686Z,58.57
2022-11-19T00:50:46.198Z,58.33
2022-11-19T00:52:47.540Z,58.32
2022-11-19T00:54:48.878Z,58.24
2022-11-19T00:56:50.224Z,58.57
2022-11-19T00:58:51.551Z,58.63
2022-11-19T01:00:52.883Z,58.07
2022-11-19T01:02:54.201Z,58.46
2022-11-19T01:04:55.626Z,58.04
2022-11-19T01:06:57.156Z,58.03
2022-11-19T01:08:58.677Z,57.70
2022-11-19T01:11:03.249Z,57.50
2022-11-19T01:13:23.023Z,57.52
2022-11-19T01:15:24.305Z,57.17
2022-11-19T01:17:25.725Z,57.44
2022-11-19T01:19:27.016Z,57.29
2022-11-19T01:21:28.504Z,57.21
2022-11-19T01:23:29.852Z,56.93
2022-11-19T01:25:31.364Z,57.20
2022-11-19T01:27:32.841Z,57.18
2022-11-19T01:29:34.145Z,57.66
2022-11-19T01:31:35.548Z,57.34
2022-11-19T01:33:37.056Z,57.47
2022-11-19T01:35:38.518Z,57.74
2022-11-19T01:37:39.812Z,57.38
2022-11-19T01:39:41.139Z,57.42
2022-11-19T01:41:43.577Z,57.81
2022-11-19T01:43:44.910Z,57.99
2022-11-19T01:45:48.516Z,57.99
2022-11-19T01:47:50.048Z,57.90
2022-11-19T01:49:51.329Z,58.28
2022-11-19T01:51:52.834Z,58.26
2022-11-19T01:53:54.131Z,58.36
2022-11-19T01:55:55.396Z,58.27
2022-11-19T01:57:56.829Z,58.38
2022-11-19T01:59:58.289Z,57.98
2022-11-19T02:01:59.552Z,58.50
2022-11-19T02:04:01.195Z,57.86
2022-11-19T02:06:02.817Z,58.16
2022-11-19T02:08:04.281Z,57.93
2022-11-19T02:10:05.583Z,57.88
2022-11-19T02:12:07.125Z,57.86
2022-11-19T02:14:08.460Z,57.39
2022-11-19T02:16:09.918Z,57.22
2022-11-19T02:18:11.189Z,57.22
2022-11-19T02:20:12.469Z,57.32
2022-11-19T02:22:13.921Z,57.02
2022-11-19T02:24:15.361Z,57.30
2022-11-19T02:26:17.752Z,57.14
2022-11-19T02:28:19.208Z,57.09
2022-11-19T02:30:20.540Z,57.22
2022-11-19T02:32:22.101Z,57.43
2022-11-19T02:34:23.780Z,57.07
2022-11-19T02:36:25.045Z,57.00
2022-11-19T02:38:26.600Z,56.65
2022-11-19T02:40:27.869Z,57.02
2022-11-19T02:42:29.356Z,57.33
2022-11-19T02:44:49.518Z,57.16
2022-11-19T02:46:50.877Z,57.14
2022-11-19T02:48:52.157Z,57.78
2022-11-19T02:50:53.569Z,57.49
2022-11-19T02:52:54.858Z,57.97
2022-11-19T02:54:56.401Z,57.86
2022-11-19T02:57:00.704Z,57.65
2022-11-19T02:59:21.450Z,57.73
2022-11-19T03:01:41.424Z,58.27
2022-11-19T03:04:02.104Z,57.80
2022-11-19T03:06:03.556Z,58.37
2022-11-19T03:08:05.133Z,57.91
2022-11-19T03:10:07.140Z,58.39
2022-11-19T03:12:08.581Z,57.99
2022-11-19T03:14:28.554Z,58.46
2022-11-19T03:16:41.964Z,58.22
2022-11-19T03:18:43.260Z,58.32
2022-11-19T03:20:44.740Z,58.06
2022-11-19T03:22:46.194Z,57.93
2022-11-19T03:24:47.635Z,57.54
2022-11-19T03:26:49.152Z,56.91
2022-11-19T03:28:50.697Z,57.02
2022-11-19T03:30:52.184Z,56.77
2022-11-19T03:32:53.628Z,56.91
2022-11-19T03:34:55.085Z,56.84
2022-11-19T03:36:56.687Z,56.55
2022-11-19T03:38:58.235Z,56.84
2022-11-19T03:40:59.544Z,56.65
2022-11-19T03:43:01.131Z,56.72
2022-11-19T03:45:02.703Z,56.58
2022-11-19T03:47:04.464Z,56.54
2022-11-19T03:49:05.935Z,56.65
2022-11-19T03:51:07.340Z,57.09
2022-11-19T03:53:08.758Z,57.17
2022-11-19T03:55:10.270Z,57.44
2022-11-19T03:57:11.662Z,57.29
2022-11-19T03:59:13.677Z,57.32
2022-11-19T04:01:14.972Z,57.38
2022-11-19T04:03:16.468Z,57.32
2022-11-19T04:05:17.760Z,57.59
2022-11-19T04:07:19.109Z,57.72
2022-11-19T04:09:21.449Z,57.84
2022-11-19T04:13:23.305Z,58.08
2022-11-19T04:15:24.588Z,57.88
2022-11-19T04:17:25.872Z,58.01
2022-11-19T04:19:27.360Z,57.85
2022-11-19T04:21:28.837Z,58.11
2022-11-19T04:23:30.162Z,58.10
2022-11-19T04:25:31.460Z,57.88
2022-11-19T04:27:32.728Z,57.82
2022-11-19T04:29:34.029Z,57.14
2022-11-19T04:31:35.377Z,57.28
2022-11-19T04:33:36.724Z,57.15
2022-11-19T04:35:38.005Z,56.47
2022-11-19T04:37:39.293Z,56.81
2022-11-19T04:39:40.581Z,56.30
2022-11-19T04:41:41.863Z,56.37
2022-11-19T04:43:43.144Z,56.59
2022-11-19T04:45:44.468Z,56.54
2022-11-19T04:47:45.743Z,56.99
2022-11-19T04:49:47.037Z,56.49
2022-11-19T04:51:48.328Z,56.67
2022-11-19T04:53:49.616Z,56.86
2022-11-19T04:55:50.935Z,56.65
2022-11-19T04:57:53.361Z,57.00
2022-11-19T04:59:54.653Z,56.87
2022-11-19T05:01:56.064Z,57.51
2022-11-19T05:03:57.470Z,57.14
2022-11-19T05:05:58.765Z,58.05
2022-11-19T05:08:00.048Z,58.00
2022-11-19T05:10:01.369Z,57.93
2022-11-19T05:12:02.657Z,57.92
2022-11-19T05:14:03.973Z,57.77
2022-11-19T05:16:05.531Z,58.12
2022-11-19T05:18:06.803Z,58.79
2022-11-19T05:20:08.081Z,59.00
2022-11-19T05:22:09.366Z,58.97
2022-11-19T05:24:10.665Z,58.77
2022-11-19T05:26:11.959Z,58.55
2022-11-19T05:28:13.256Z,58.48
2022-11-19T05:30:14.573Z,58.35
2022-11-19T05:32:15.881Z,58.86
2022-11-19T05:34:17.203Z,58.57
2022-11-19T05:36:18.517Z,58.64
2022-11-19T05:38:19.845Z,58.60
2022-11-19T05:40:21.130Z,57.59
2022-11-19T05:42:22.417Z,57.41
2022-11-19T05:44:23.740Z,57.45
2022-11-19T05:46:25.006Z,57.23
2022-11-19T05:48:26.318Z,57.08
2022-11-19T05:50:27.584Z,56.80
2022-11-19T05:52:28.870Z,56.55
2022-11-19T05:54:30.387Z,56.51
2022-11-19T05:56:31.724Z,56.76
2022-11-19T05:58:33.072Z,56.41
2022-11-19T06:00:34.356Z,56.46
2022-11-19T06:02:35.649Z,56.20
2022-11-19T06:04:37.029Z,56.25
2022-11-19T06:06:38.358Z,56.44
2022-11-19T06:08:39.640Z,56.51
2022-11-19T06:10:40.919Z,56.82
2022-11-19T06:12:45.487Z,56.30
2022-11-19T06:14:47.364Z,56.73
2022-11-19T06:16:48.715Z,56.95
2022-11-19T06:18:50.045Z,57.27
2022-11-19T06:20:51.325Z,57.36
2022-11-19T06:22:52.628Z,57.19
2022-11-19T06:24:53.901Z,57.21
2022-11-19T06:26:55.192Z,57.25
2022-11-19T06:28:56.479Z,57.25
2022-11-19T06:30:57.759Z,57.11
2022-11-19T06:32:59.056Z,57.51
2022-11-19T06:35:00.398Z,57.87
2022-11-19T06:37:01.685Z,57.68
2022-11-19T06:39:02.993Z,58.03
2022-11-19T06:41:04.341Z,57.93
2022-11-19T06:43:05.623Z,57.94
2022-11-19T06:45:06.927Z,57.77
2022-11-19T06:47:08.269Z,58.19
2022-11-19T06:49:18.483Z,57.79
2022-11-19T06:51:21.308Z,57.96
2022-11-19T06:53:22.586Z,58.03
2022-11-19T06:55:23.925Z,57.25
2022-11-19T06:57:25.262Z,56.96
2022-11-19T06:59:26.550Z,56.97
2022-11-19T07:01:28.124Z,57.31
2022-11-19T07:03:29.439Z,56.45
2022-11-19T07:05:33.535Z,56.38
2022-11-19T07:07:34.949Z,56.44
2022-11-19T07:09:36.303Z,56.91
2022-11-19T07:11:37.600Z,57.46
2022-11-19T07:13:57.234Z,57.12
2022-11-19T07:15:58.551Z,57.79
2022-11-19T07:17:59.944Z,58.03
2022-11-19T07:20:01.234Z,58.03
2022-11-19T07:22:02.505Z,57.29
2022-11-19T07:24:03.784Z,57.88
2022-11-19T07:26:05.088Z,57.81
2022-11-19T07:28:06.441Z,57.60
2022-11-19T07:30:08.700Z,58.43
2022-11-19T07:32:10.052Z,58.15
2022-11-19T07:34:11.388Z,58.04
2022-11-19T07:36:17.004Z,58.28
2022-11-19T07:38:19.560Z,58.32
2022-11-19T07:40:20.838Z,58.40
2022-11-19T07:42:40.769Z,58.05
2022-11-19T07:44:42.052Z,57.88
2022-11-19T07:46:43.386Z,58.07
2022-11-19T07:48:44.689Z,57.79
2022-11-19T07:50:45.984Z,57.60
2022-11-19T07:52:47.307Z,56.29
2022-11-19T07:54:48.634Z,55.76
2022-11-19T07:56:49.989Z,54.44
2022-11-19T07:58:51.272Z,53.28
2022-11-19T08:00:52.553Z,53.45
2022-11-19T08:02:53.849Z,53.34
2022-11-19T08:04:55.168Z,54.38
2022-11-19T08:06:56.476Z,54.54
2022-11-19T08:08:57.913Z,54.43
2022-11-19T08:10:59.251Z,54.69
2022-11-19T08:13:03.652Z,55.34
2022-11-19T08:15:05.186Z,55.49
2022-11-19T08:17:25.057Z,55.29
2022-11-19T08:19:26.539Z,55.69
2022-11-19T08:21:27.824Z,55.53
2022-11-19T08:23:29.125Z,55.56
2022-11-19T08:25:33.744Z,55.70
2022-11-19T08:27:35.190Z,55.38
2022-11-19T08:29:36.481Z,55.97
2022-11-19T08:31:37.776Z,55.97
2022-11-19T08:33:39.064Z,56.02
2022-11-19T08:35:40.345Z,55.95
2022-11-19T08:37:41.657Z,55.86
2022-11-19T08:39:42.950Z,55.91
2022-11-19T08:42:03.143Z,55.66
2022-11-19T08:44:04.436Z,55.41
2022-11-19T08:46:05.727Z,55.62
2022-11-19T08:48:07.074Z,55.71
2022-11-19T08:50:08.480Z,55.42
2022-11-19T08:52:09.760Z,55.19
2022-11-19T08:54:11.127Z,55.52
2022-11-19T08:56:16.851Z,55.55
2022-11-19T08:58:19.379Z,55.42
2022-11-19T09:00:23.600Z,55.41
2022-11-19T09:02:24.884Z,55.45
2022-11-19T09:04:26.186Z,55.44
2022-11-19T09:06:27.665Z,55.57
2022-11-19T09:08:29.021Z,55.57
2022-11-19T09:10:30.504Z,55.27
2022-11-19T09:12:34.737Z,55.61
2022-11-19T09:14:36.025Z,55.59
2022-11-19T09:16:37.349Z,55.52
2022-11-19T09:18:40.092Z,55.13
2022-11-19T09:20:41.408Z,55.59
2022-11-19T09:22:42.889Z,55.30
2022-11-19T09:24:44.220Z,55.08
2022-11-19T09:26:50.237Z,55.09
2022-11-19T09:28:53.828Z,55.50
2022-11-19T09:30:55.177Z,55.00
2022-11-19T09:32:56.489Z,55.29
2022-11-19T09:34:57.795Z,55.31
2022-11-19T09:36:59.120Z,40.18
2022-11-19T09:39:02.198Z,40.39
2022-11-19T09:41:03.497Z,41.22
2022-11-19T09:43:04.886Z,44.65
2022-11-19T09:45:06.189Z,43.36
2022-11-19T09:47:07.517Z,43.09
2022-11-19T09:49:08.796Z,43.95
2022-11-19T09:51:10.151Z,44.36
2022-11-19T09:53:11.443Z,45.29
2022-11-19T09:55:12.768Z,46.89
2022-11-19T09:57:14.054Z,46.28
2022-11-19T09:59:15.374Z,46.55
2022-11-19T10:01:17.388Z,46.81
2022-11-19T10:03:18.761Z,47.19
2022-11-19T10:05:20.149Z,47.25
2022-11-19T10:07:21.483Z,47.06
2022-11-19T10:09:23.021Z,47.68
2022-11-19T10:11:27.025Z,49.05
2022-11-19T10:13:28.302Z,47.93
2022-11-19T10:15:34.513Z,47.98
2022-11-19T10:17:38.577Z,48.33
2022-11-19T10:19:39.955Z,49.08
2022-11-19T10:21:41.318Z,49.21
2022-11-19T10:23:42.638Z,49.28
2022-11-19T10:25:43.985Z,49.92
2022-11-19T10:27:45.289Z,49.38
2022-11-19T10:29:46.556Z,50.43
2022-11-19T10:31:47.900Z,50.18
2022-11-19T10:33:49.170Z,50.68
2022-11-19T10:35:50.448Z,51.18
2022-11-19T10:37:51.868Z,52.04
2022-11-19T10:39:53.157Z,37.75
2022-11-19T10:41:54.455Z,36.33
2022-11-19T10:43:55.773Z,35.44
2022-11-19T10:45:57.113Z,34.06
2022-11-19T10:47:58.441Z,34.96
2022-11-19T10:49:59.779Z,34.54
2022-11-19T10:52:01.049Z,40.31
2022-11-19T10:54:03.668Z,38.92
2022-11-19T10:56:04.968Z,38.77
2022-11-19T10:58:06.244Z,39.87
2022-11-19T11:00:07.659Z,41.92
2022-11-19T11:02:08.965Z,41.33
2022-11-19T11:04:10.484Z,42.17
2022-11-19T11:06:12.204Z,42.36
2022-11-19T11:08:13.533Z,42.69
2022-11-19T11:10:14.809Z,42.60
2022-11-19T11:12:34.645Z,42.50
2022-11-19T11:14:54.821Z,42.95
2022-11-19T11:16:56.381Z,43.72
2022-11-19T11:18:57.668Z,43.92
2022-11-19T11:20:59.324Z,44.02
2022-11-19T11:23:00.656Z,44.23
2022-11-19T11:25:07.110Z,45.01
2022-11-19T11:27:08.833Z,44.88
2022-11-19T11:29:10.125Z,44.34
2022-11-19T11:31:11.412Z,44.63
2022-11-19T11:33:12.786Z,45.14
2022-11-19T11:35:16.230Z,45.19
2022-11-19T11:37:17.664Z,45.45
2022-11-19T11:39:19.058Z,45.88
2022-11-19T11:42:03.642Z,45.93
2022-11-19T11:44:01.253Z,46.41
2022-11-19T11:46:02.537Z,46.82
2022-11-19T11:48:03.804Z,47.06
2022-11-19T11:50:05.133Z,47.64
2022-11-19T11:52:07.001Z,47.78
2022-11-19T11:54:08.312Z,48.11
2022-11-19T11:56:09.785Z,48.36
2022-11-19T11:58:11.054Z,48.44
2022-11-19T12:00:12.331Z,48.62
2022-11-19T12:02:13.653Z,49.17
2022-11-19T12:04:17.872Z,49.06
2022-11-19T12:06:19.164Z,49.38
2022-11-19T12:08:24.267Z,49.07
2022-11-19T12:10:28.129Z,48.70
2022-11-19T12:12:29.404Z,48.74
2022-11-19T12:14:30.705Z,48.78
2022-11-19T12:16:32.037Z,49.11
2022-11-19T12:18:33.320Z,48.72
2022-11-19T12:20:37.265Z,49.44
2022-11-19T12:22:38.535Z,49.75
2022-11-19T12:24:39.920Z,50.07
2022-11-19T12:26:41.260Z,50.31
2022-11-19T12:28:42.742Z,49.98
2022-11-19T12:30:53.160Z,49.91
2022-11-19T12:32:54.481Z,50.39
2022-11-19T12:34:55.767Z,50.67
2022-11-19T12:37:00.250Z,50.99
2022-11-19T12:39:04.369Z,51.09
2022-11-19T12:41:05.657Z,51.28
2022-11-19T12:43:07.133Z,51.88
2022-11-19T12:45:08.401Z,51.74
2022-11-19T12:47:09.684Z,51.71
2022-11-19T12:49:11.025Z,51.93
2022-11-19T12:51:13.012Z,51.82
2022-11-19T12:53:14.303Z,51.17
2022-11-19T12:55:15.650Z,51.47
2022-11-19T12:57:17.100Z,51.37
2022-11-19T12:59:18.473Z,51.17
2022-11-19T13:01:19.968Z,51.72
2022-11-19T13:03:21.501Z,51.10
2022-11-19T13:05:22.940Z,51.36
2022-11-19T13:07:24.341Z,50.48
2022-11-19T13:09:25.654Z,51.16
2022-11-19T13:11:26.937Z,51.38
2022-11-19T13:13:28.276Z,51.20
2022-11-19T13:15:29.556Z,51.19
2022-11-19T13:17:30.840Z,51.36
2022-11-19T13:19:35.080Z,51.57
2022-11-19T13:21:36.361Z,51.82
2022-11-19T13:23:38.132Z,52.13
2022-11-19T13:25:39.424Z,52.27
2022-11-19T13:27:40.877Z,52.44
2022-11-19T13:29:42.216Z,52.36
2022-11-19T13:31:43.480Z,52.11
2022-11-19T13:33:44.832Z,52.48
2022-11-19T13:35:46.131Z,52.44
2022-11-19T13:37:47.417Z,52.71
2022-11-19T13:39:48.861Z,52.50
2022-11-19T13:42:08.653Z,52.25
2022-11-19T13:44:28.433Z,52.36
2022-11-19T13:46:29.723Z,52.62
2022-11-19T13:48:31.024Z,52.65
2022-11-19T13:50:32.304Z,52.39
2022-11-19T13:52:33.653Z,52.60
2022-11-19T13:54:35.120Z,52.80
2022-11-19T13:56:36.441Z,52.54
2022-11-19T13:58:40.436Z,52.69
2022-11-19T14:00:41.756Z,52.56
2022-11-19T14:02:43.045Z,52.38
2022-11-19T14:04:44.341Z,52.23
2022-11-19T14:06:45.672Z,52.00
2022-11-19T14:08:46.961Z,51.95
2022-11-19T14:10:48.249Z,51.68
2022-11-19T14:12:49.544Z,51.07
2022-11-19T14:15:09.652Z,51.23
2022-11-19T14:17:29.456Z,50.65
2022-11-19T14:19:49.236Z,50.48
2022-11-19T14:22:09.076Z,50.37
2022-11-19T14:24:42.647Z,50.58
2022-11-19T14:26:46.536Z,50.38
2022-11-19T14:28:49.987Z,50.70
2022-11-19T14:30:51.276Z,50.28
2022-11-19T14:32:52.629Z,50.72
2022-11-19T14:34:53.908Z,51.04
2022-11-19T14:36:55.193Z,50.63
2022-11-19T14:38:56.496Z,51.00
2022-11-19T14:40:57.781Z,51.03
2022-11-19T14:43:17.824Z,51.42
2022-11-19T14:45:19.300Z,51.77
2022-11-19T14:47:20.633Z,51.88
2022-11-19T14:49:22.331Z,51.90
2022-11-19T14:51:23.993Z,51.87
2022-11-19T14:53:25.272Z,52.01
2022-11-19T14:55:26.621Z,52.35
2022-11-19T14:57:27.973Z,52.37
2022-11-19T14:59:29.392Z,52.36
2022-11-19T15:01:30.679Z,52.49
2022-11-19T15:03:31.990Z,52.65
2022-11-19T15:05:34.133Z,52.47
2022-11-19T15:07:35.474Z,52.50
2022-11-19T15:09:36.777Z,52.74
2022-11-19T15:11:38.120Z,52.99
2022-11-19T15:13:40.667Z,52.98
2022-11-19T15:15:42.152Z,52.74
2022-11-19T15:17:43.447Z,53.06
2022-11-19T15:19:47.397Z,53.11
2022-11-19T15:21:48.767Z,53.02
2022-11-19T15:23:50.042Z,52.82
2022-11-19T15:25:51.324Z,52.69
2022-11-19T15:27:53.198Z,52.77
2022-11-19T15:29:54.476Z,52.34
2022-11-19T15:31:55.748Z,51.28
2022-11-19T15:33:57.144Z,51.49
2022-11-19T15:35:58.452Z,51.24
2022-11-19T15:37:59.744Z,51.28
2022-11-19T15:40:01.021Z,50.71
2022-11-19T15:42:02.656Z,50.78
2022-11-19T15:44:03.941Z,50.87
2022-11-19T15:46:05.460Z,50.97
2022-11-19T15:48:06.742Z,50.61
2022-11-19T15:50:08.029Z,50.63
2022-11-19T15:52:14.460Z,51.06
2022-11-19T15:54:18.899Z,50.48
2022-11-19T15:56:20.212Z,50.59
2022-11-19T15:58:21.509Z,50.63
2022-11-19T16:00:23.052Z,50.74
2022-11-19T16:02:24.390Z,50.43
2022-11-19T16:04:25.681Z,50.50
2022-11-19T16:06:27.008Z,50.85
2022-11-19T16:08:28.333Z,50.45
2022-11-19T16:10:29.810Z,50.60
2022-11-19T16:12:49.478Z,50.73
2022-11-19T16:15:09.327Z,50.74
2022-11-19T16:17:29.228Z,51.15
2022-11-19T16:19:30.496Z,51.52
2022-11-19T16:21:31.821Z,39.51
2022-11-19T16:23:53.083Z,47.20
2022-11-19T16:25:57.348Z,45.02
2022-11-19T16:27:58.655Z,44.48
2022-11-19T16:30:02.626Z,45.48
2022-11-19T16:32:04.403Z,45.61
2022-11-19T16:34:05.684Z,46.30
2022-11-19T16:36:07.005Z,46.89
2022-11-19T16:38:08.284Z,47.70
2022-11-19T16:40:09.573Z,48.26
2022-11-19T16:42:19.964Z,48.82
2022-11-19T16:44:22.185Z,49.05
2022-11-19T16:46:23.784Z,49.20
2022-11-19T16:48:25.352Z,49.74
2022-11-19T16:50:27.140Z,50.14
2022-11-19T16:52:28.457Z,49.27
2022-11-19T16:54:29.747Z,49.13
2022-11-19T16:56:31.029Z,49.57
2022-11-19T16:58:32.357Z,49.55
2022-11-19T17:00:33.698Z,49.54
2022-11-19T17:02:35.030Z,49.85
2022-11-19T17:04:36.316Z,50.05
2022-11-19T17:06:37.774Z,50.20
2022-11-19T17:08:39.146Z,49.87
2022-11-19T17:10:43.392Z,50.05
2022-11-19T17:12:44.693Z,50.19
2022-11-19T17:14:46.045Z,50.53
2022-11-19T17:16:47.376Z,50.94
2022-11-19T17:18:48.693Z,51.32
2022-11-19T17:20:50.608Z,51.49
2022-11-19T17:22:51.944Z,51.93
2022-11-19T17:24:53.244Z,51.92
2022-11-19T17:26:54.638Z,51.74
2022-11-19T17:28:56.280Z,51.05
2022-11-19T17:30:59.724Z,51.95
2022-11-19T17:33:01.035Z,51.81
2022-11-19T17:35:02.722Z,51.88
2022-11-19T17:37:03.988Z,51.93
2022-11-19T17:39:05.272Z,51.63
2022-11-19T17:41:07.462Z,52.25
2022-11-19T17:43:28.309Z,52.03
2022-11-19T17:45:32.637Z,51.83
2022-11-19T17:47:33.943Z,51.99
2022-11-19T17:49:35.271Z,51.64
2022-11-19T17:51:36.584Z,51.48
2022-11-19T17:53:37.868Z,51.31
2022-11-19T17:55:39.137Z,51.40
2022-11-19T17:57:43.589Z,51.63
2022-11-19T17:59:44.915Z,51.95
2022-11-19T18:01:49.252Z,51.16
2022-11-19T18:03:50.550Z,50.89
2022-11-19T18:05:51.893Z,50.69
2022-11-19T18:07:55.122Z,50.58
2022-11-19T18:09:56.531Z,50.99
2022-11-19T18:12:00.872Z,51.26
2022-11-19T18:14:05.160Z,51.35
2022-11-19T18:16:06.433Z,51.28
2022-11-19T18:18:07.781Z,51.52
2022-11-19T18:20:09.260Z,51.54
2022-11-19T18:22:10.538Z,51.64
2022-11-19T18:24:12.201Z,52.18
2022-11-19T18:26:13.497Z,52.06
2022-11-19T18:28:14.798Z,52.32
2022-11-19T18:30:18.845Z,51.70
2022-11-19T18:32:20.183Z,52.12
2022-11-19T18:34:21.480Z,51.81
2022-11-19T18:36:22.745Z,52.14
2022-11-19T18:38:24.192Z,52.27
2022-11-19T18:40:25.500Z,52.72
2022-11-19T18:42:26.922Z,52.68
2022-11-19T18:44:34.438Z,52.48
2022-11-19T18:46:35.798Z,52.75
2022-11-19T18:48:37.128Z,52.68
2022-11-19T18:50:38.457Z,52.99
2022-11-19T18:52:39.797Z,52.81
2022-11-19T18:54:41.122Z,52.85
2022-11-19T18:56:42.396Z,52.81
2022-11-19T18:58:43.724Z,52.93
2022-11-19T19:00:45.008Z,53.02
2022-11-19T19:02:46.285Z,52.81
2022-11-19T19:04:50.990Z,52.80
2022-11-19T19:06:52.648Z,52.46
2022-11-19T19:08:54.011Z,52.12
2022-11-19T19:11:15.265Z,51.68
2022-11-19T19:13:16.577Z,51.31
2022-11-19T19:15:17.860Z,51.48
2022-11-19T19:17:19.210Z,51.48
2022-11-19T19:19:20.939Z,51.49
2022-11-19T19:21:22.404Z,51.42
2022-11-19T19:23:23.723Z,51.68
2022-11-19T19:25:25.157Z,51.72
2022-11-19T19:27:26.488Z,51.96
2022-11-19T19:29:28.316Z,51.99
2022-11-19T19:31:29.628Z,52.08
2022-11-19T19:33:33.631Z,52.15
2022-11-19T19:35:34.916Z,52.50
2022-11-19T19:37:36.494Z,52.22
2022-11-19T19:39:38.323Z,52.19
2022-11-19T19:41:39.616Z,52.39
2022-11-19T19:43:40.894Z,52.33
2022-11-19T19:45:48.268Z,52.47
2022-11-19T19:47:49.561Z,52.67
2022-11-19T19:49:50.828Z,52.81
2022-11-19T19:51:58.372Z,52.80
2022-11-19T19:53:59.713Z,52.78
2022-11-19T19:56:01.040Z,52.92
2022-11-19T19:58:07.262Z,52.74
2022-11-19T20:00:08.577Z,53.11
2022-11-19T20:02:10.285Z,52.55
2022-11-19T20:04:11.662Z,53.16
2022-11-19T20:06:13.036Z,52.65
2022-11-19T20:08:14.321Z,51.98
2022-11-19T20:10:15.672Z,51.96
2022-11-19T20:12:16.973Z,52.12
2022-11-19T20:14:18.264Z,52.47
2022-11-19T20:16:19.592Z,52.42
2022-11-19T20:18:21.452Z,51.67
2022-11-19T20:20:22.738Z,51.59
2022-11-19T20:22:24.136Z,51.19
2022-11-19T20:24:25.453Z,51.46
2022-11-19T20:26:30.399Z,50.95
2022-11-19T20:28:34.968Z,50.93
2022-11-19T20:30:36.259Z,51.13
2022-11-19T20:32:37.596Z,51.07
2022-11-19T20:34:39.115Z,51.69
2022-11-19T20:36:40.400Z,51.79
2022-11-19T20:38:41.742Z,51.90
2022-11-19T20:40:43.949Z,52.10
2022-11-19T20:43:03.780Z,52.08
2022-11-19T20:45:05.061Z,52.25
2022-11-19T20:47:06.368Z,52.73
2022-11-19T20:49:08.924Z,52.89
2022-11-19T20:51:11.827Z,52.87
2022-11-19T20:53:13.132Z,52.86
2022-11-19T20:55:14.444Z,52.74
2022-11-19T20:57:15.736Z,52.96
2022-11-19T20:59:17.246Z,52.87
2022-11-19T21:01:18.614Z,53.60
2022-11-19T21:03:19.885Z,53.50
2022-11-19T21:05:21.577Z,53.57
2022-11-19T21:07:22.949Z,53.60
2022-11-19T21:09:24.945Z,53.59
2022-11-19T21:11:26.778Z,54.19
2022-11-19T21:13:28.203Z,53.81
2022-11-19T21:15:29.549Z,53.63
2022-11-19T21:17:30.821Z,53.20
2022-11-19T21:19:32.093Z,53.26
2022-11-19T21:21:34.140Z,53.04
2022-11-19T21:23:38.626Z,53.70
2022-11-19T21:25:39.912Z,53.86
2022-11-19T21:27:41.263Z,53.67
2022-11-19T21:29:42.545Z,53.37
2022-11-19T21:31:48.861Z,53.63
2022-11-19T21:33:50.188Z,53.65
2022-11-19T21:35:51.501Z,53.38
2022-11-19T21:37:52.796Z,53.28
2022-11-19T21:39:54.080Z,53.18
2022-11-19T21:41:55.410Z,52.99
2022-11-19T21:43:56.736Z,53.25
2022-11-19T21:45:58.106Z,52.82
2022-11-19T21:48:02.421Z,52.96
2022-11-19T21:50:03.726Z,52.61
2022-11-19T21:52:05.034Z,52.58
2022-11-19T21:54:06.434Z,52.44
2022-11-19T21:56:10.948Z,52.78
2022-11-19T21:58:13.553Z,52.46
2022-11-19T22:00:14.864Z,52.38
2022-11-19T22:02:16.180Z,52.41
2022-11-19T22:04:17.545Z,52.67
2022-11-19T22:06:18.861Z,52.38
2022-11-19T22:08:20.149Z,52.33
2022-11-19T22:10:21.460Z,52.45
2022-11-19T22:12:22.868Z,33.54
2022-11-19T22:14:24.368Z,33.04
2022-11-19T22:16:25.662Z,39.95
2022-11-19T22:18:27.133Z,40.42
2022-11-19T22:20:28.415Z,40.52
2022-11-19T22:22:29.692Z,42.03
2022-11-19T22:24:30.973Z,42.17
2022-11-19T22:26:32.250Z,43.65
2022-11-19T22:28:34.617Z,43.93
2022-11-19T22:30:35.904Z,45.02
2022-11-19T22:32:37.237Z,45.20
2022-11-19T22:34:38.583Z,45.78
2022-11-19T22:36:39.860Z,46.16
2022-11-19T22:38:41.172Z,46.59
2022-11-19T22:40:42.500Z,46.84
2022-11-19T22:42:43.778Z,46.91
2022-11-19T22:44:45.101Z,47.32
2022-11-19T22:46:50.088Z,47.09
2022-11-19T22:48:51.381Z,47.43
2022-11-19T22:50:52.721Z,47.92
2022-11-19T22:52:54.040Z,47.98
2022-11-19T22:54:55.355Z,48.56
2022-11-19T22:56:56.658Z,48.89
2022-11-19T23:00:59.335Z,49.15
2022-11-19T23:03:00.633Z,49.42
2022-11-19T23:05:01.905Z,49.97
2022-11-19T23:07:03.286Z,49.85
2022-11-19T23:09:04.580Z,50.18
2022-11-19T23:11:05.864Z,50.66
2022-11-19T23:13:25.672Z,50.35
2022-11-19T23:15:26.936Z,50.86
2022-11-19T23:17:28.243Z,51.16
2022-11-19T23:19:29.590Z,51.44
2022-11-19T23:21:30.951Z,51.56
2022-11-19T23:23:32.316Z,51.63
2022-11-19T23:25:33.606Z,51.88
2022-11-19T23:27:34.917Z,52.26
2022-11-19T23:29:36.221Z,52.68
2022-11-19T23:31:37.524Z,52.27
2022-11-19T23:33:38.896Z,52.97
2022-11-19T23:35:40.193Z,52.74
2022-11-19T23:37:41.462Z,52.75
2022-11-19T23:39:42.754Z,52.83
2022-11-19T23:41:44.046Z,53.38
2022-11-19T23:43:45.364Z,53.07
2022-11-19T23:45:46.650Z,53.27
2022-11-19T23:47:47.961Z,53.68
2022-11-19T23:49:49.269Z,53.73
2022-11-19T23:51:50.597Z,53.95
2022-11-19T23:53:52.181Z,53.12
2022-11-19T23:55:53.447Z,53.57
2022-11-19T23:57:54.763Z,53.12
2022-11-19T23:59:56.056Z,52.73
